sensor_id;sensor_type;location;lat;lon;timestamp;P1;durP1;ratioP1;P2;durP2;ratioP2
80868;SDS011;70295;40.182;44.498;2023-08-21T00:00:42;5.6;;;3.2;;
80868;SDS011;70295;40.182;44.498;2023-08-21T00:02:42;5.5;;;3.3;;
80868;SDS011;70295;40.182;44.498;2023-08-21T00:04:42;6.6;;;3.8;;
80868;SDS011;70295;40.182;44.498;2023-08-21T00:08:56;4.6;;;3.2;;
80868;SDS011;70295;40.182;44.498;2023-08-21T00:10:57;6;;;3.5;;
80868;SDS011;70295;40.182;44.498;2023-08-21T00:13:18;6.7;;;3.4;;
80868;SDS011;70295;40.182;44.498;2023-08-21T00:15:18;5.4;;;3.7;;
80868;SDS011;70295;40.182;44.498;2023-08-21T00:17:18;7.1;;;3.6;;
80868;SDS011;70295;40.182;44.498;2023-08-21T00:19:18;8.8;;;4.1;;
80868;SDS011;70295;40.182;44.498;2023-08-21T00:21:18;4.5;;;3.8;;
80868;SDS011;70295;40.182;44.498;2023-08-21T00:23:18;6;;;3.6;;
80868;SDS011;70295;40.182;44.498;2023-08-21T00:25:18;6.6;;;4;;
80868;SDS011;70295;40.182;44.498;2023-08-21T00:27:18;6.6;;;3.8;;
80868;SDS011;70295;40.182;44.498;2023-08-21T00:30:07;6.4;;;3.8;;
80868;SDS011;70295;40.182;44.498;2023-08-21T00:32:06;5.8;;;3.9;;
80868;SDS011;70295;40.182;44.498;2023-08-21T00:38:09;6.2;;;3.7;;
80868;SDS011;70295;40.182;44.498;2023-08-21T00:45:08;7.7;;;3.7;;
80868;SDS011;70295;40.182;44.498;2023-08-21T00:50:22;6.4;;;4.4;;
80868;SDS011;70295;40.182;44.498;2023-08-21T00:52:22;6.1;;;4.2;;
80868;SDS011;70295;40.182;44.498;2023-08-21T00:54:22;7.9;;;4.5;;
80868;SDS011;70295;40.182;44.498;2023-08-21T00:58:08;5.5;;;4;;
80868;SDS011;70295;40.182;44.498;2023-08-21T01:00:07;5.2;;;4.3;;
80868;SDS011;70295;40.182;44.498;2023-08-21T01:02:06;7.4;;;4.4;;
80868;SDS011;70295;40.182;44.498;2023-08-21T01:04:07;6.8;;;4.5;;
80868;SDS011;70295;40.182;44.498;2023-08-21T01:06:06;6.7;;;4.2;;
80868;SDS011;70295;40.182;44.498;2023-08-21T01:09:07;8.7;;;4.6;;
80868;SDS011;70295;40.182;44.498;2023-08-21T01:13:01;7.5;;;4.6;;
80868;SDS011;70295;40.182;44.498;2023-08-21T01:14:58;8;;;4.2;;
80868;SDS011;70295;40.182;44.498;2023-08-21T01:16:59;7.8;;;4.6;;
80868;SDS011;70295;40.182;44.498;2023-08-21T01:18:56;6.5;;;4.6;;
80868;SDS011;70295;40.182;44.498;2023-08-21T01:23:07;6.9;;;4.2;;
80868;SDS011;70295;40.182;44.498;2023-08-21T01:25:02;10;;;4.4;;
80868;SDS011;70295;40.182;44.498;2023-08-21T01:27:01;6.9;;;4.5;;
80868;SDS011;70295;40.182;44.498;2023-08-21T01:29:02;6.6;;;4.5;;
80868;SDS011;70295;40.182;44.498;2023-08-21T01:33:05;7.8;;;3.9;;
80868;SDS011;70295;40.182;44.498;2023-08-21T01:35:01;6.2;;;3.6;;
80868;SDS011;70295;40.182;44.498;2023-08-21T01:37:02;7;;;4.2;;
80868;SDS011;70295;40.182;44.498;2023-08-21T01:39:02;6.8;;;4;;
80868;SDS011;70295;40.182;44.498;2023-08-21T01:41:02;7.4;;;4.2;;
80868;SDS011;70295;40.182;44.498;2023-08-21T01:48:52;6.1;;;3.7;;
80868;SDS011;70295;40.182;44.498;2023-08-21T01:54:36;7.2;;;3.9;;
80868;SDS011;70295;40.182;44.498;2023-08-21T01:57:09;5.4;;;3.4;;
80868;SDS011;70295;40.182;44.498;2023-08-21T01:59:10;7.7;;;3.9;;
80868;SDS011;70295;40.182;44.498;2023-08-21T02:01:10;5.8;;;3.7;;
80868;SDS011;70295;40.182;44.498;2023-08-21T02:03:01;7.2;;;4.1;;
80868;SDS011;70295;40.182;44.498;2023-08-21T02:05:01;5.9;;;3.5;;
80868;SDS011;70295;40.182;44.498;2023-08-21T02:07:00;4.5;;;3.2;;
80868;SDS011;70295;40.182;44.498;2023-08-21T02:09:00;4.3;;;3.5;;
80868;SDS011;70295;40.182;44.498;2023-08-21T02:11:03;5.3;;;3.3;;
80868;SDS011;70295;40.182;44.498;2023-08-21T02:15:02;6.2;;;3.7;;
80868;SDS011;70295;40.182;44.498;2023-08-21T02:18:11;5.4;;;3.5;;
80868;SDS011;70295;40.182;44.498;2023-08-21T02:20:12;5.6;;;3.6;;
80868;SDS011;70295;40.182;44.498;2023-08-21T02:22:11;5.8;;;3.5;;
80868;SDS011;70295;40.182;44.498;2023-08-21T02:25:52;4.2;;;3.2;;
80868;SDS011;70295;40.182;44.498;2023-08-21T02:27:52;6.5;;;3.6;;
80868;SDS011;70295;40.182;44.498;2023-08-21T02:29:52;6.4;;;3.6;;
80868;SDS011;70295;40.182;44.498;2023-08-21T02:31:52;4.8;;;3.5;;
80868;SDS011;70295;40.182;44.498;2023-08-21T02:33:52;4.1;;;3.3;;
80868;SDS011;70295;40.182;44.498;2023-08-21T02:36:28;7.4;;;3.5;;
80868;SDS011;70295;40.182;44.498;2023-08-21T02:38:27;7.4;;;3.6;;
80868;SDS011;70295;40.182;44.498;2023-08-21T02:40:28;5.9;;;3.4;;
80868;SDS011;70295;40.182;44.498;2023-08-21T02:42:27;6;;;3.2;;
80868;SDS011;70295;40.182;44.498;2023-08-21T02:45:36;5;;;3.3;;
80868;SDS011;70295;40.182;44.498;2023-08-21T02:49:38;7;;;3.9;;
80868;SDS011;70295;40.182;44.498;2023-08-21T02:58:45;5.8;;;3.5;;
80868;SDS011;70295;40.182;44.498;2023-08-21T03:01:23;5.8;;;3.5;;
80868;SDS011;70295;40.182;44.498;2023-08-21T03:04:22;6.6;;;4;;
80868;SDS011;70295;40.182;44.498;2023-08-21T03:09:51;8.3;;;3.5;;
80868;SDS011;70295;40.182;44.498;2023-08-21T03:11:51;5.9;;;3.6;;
80868;SDS011;70295;40.182;44.498;2023-08-21T03:14:21;5.8;;;3.5;;
80868;SDS011;70295;40.182;44.498;2023-08-21T03:16:21;6.9;;;3.6;;
80868;SDS011;70295;40.182;44.498;2023-08-21T03:18:21;6.4;;;3.6;;
80868;SDS011;70295;40.182;44.498;2023-08-21T03:20:21;9.5;;;4;;
80868;SDS011;70295;40.182;44.498;2023-08-21T03:22:21;5.8;;;3.9;;
80868;SDS011;70295;40.182;44.498;2023-08-21T03:28:20;8.7;;;4;;
80868;SDS011;70295;40.182;44.498;2023-08-21T03:30:20;7.1;;;4.1;;
80868;SDS011;70295;40.182;44.498;2023-08-21T03:32:21;8.5;;;4.2;;
80868;SDS011;70295;40.182;44.498;2023-08-21T03:34:20;8.4;;;4;;
80868;SDS011;70295;40.182;44.498;2023-08-21T03:36:20;6.8;;;4;;
80868;SDS011;70295;40.182;44.498;2023-08-21T03:38:20;6.4;;;3.9;;
80868;SDS011;70295;40.182;44.498;2023-08-21T03:40:20;6.9;;;4;;
80868;SDS011;70295;40.182;44.498;2023-08-21T03:42:20;8.9;;;4.5;;
80868;SDS011;70295;40.182;44.498;2023-08-21T03:44:20;7.9;;;4.1;;
80868;SDS011;70295;40.182;44.498;2023-08-21T03:46:20;8;;;4.2;;
80868;SDS011;70295;40.182;44.498;2023-08-21T03:48:20;6.7;;;4.2;;
80868;SDS011;70295;40.182;44.498;2023-08-21T03:50:20;10.6;;;4.5;;
80868;SDS011;70295;40.182;44.498;2023-08-21T03:52:20;9;;;4.2;;
80868;SDS011;70295;40.182;44.498;2023-08-21T03:54:20;6.1;;;4;;
80868;SDS011;70295;40.182;44.498;2023-08-21T04:03:31;7.5;;;3.8;;
80868;SDS011;70295;40.182;44.498;2023-08-21T04:05:31;7.3;;;3.7;;
80868;SDS011;70295;40.182;44.498;2023-08-21T04:07:31;8.8;;;4;;
80868;SDS011;70295;40.182;44.498;2023-08-21T04:09:31;8.7;;;3.9;;
80868;SDS011;70295;40.182;44.498;2023-08-21T04:11:31;8.4;;;3.8;;
80868;SDS011;70295;40.182;44.498;2023-08-21T04:13:31;8.8;;;3.6;;
80868;SDS011;70295;40.182;44.498;2023-08-21T04:15:31;8.3;;;3.6;;
80868;SDS011;70295;40.182;44.498;2023-08-21T04:17:31;5.4;;;3.4;;
80868;SDS011;70295;40.182;44.498;2023-08-21T04:19:31;6.6;;;3.6;;
80868;SDS011;70295;40.182;44.498;2023-08-21T04:21:31;6.7;;;3.4;;
80868;SDS011;70295;40.182;44.498;2023-08-21T04:23:31;6.6;;;3.6;;
80868;SDS011;70295;40.182;44.498;2023-08-21T04:25:31;5.8;;;3.4;;
80868;SDS011;70295;40.182;44.498;2023-08-21T04:27:31;7.1;;;3.8;;
80868;SDS011;70295;40.182;44.498;2023-08-21T04:38:11;8.6;;;3.6;;
80868;SDS011;70295;40.182;44.498;2023-08-21T04:40:12;6.4;;;3.1;;
80868;SDS011;70295;40.182;44.498;2023-08-21T04:42:11;8;;;3.7;;
80868;SDS011;70295;40.182;44.498;2023-08-21T04:46:15;8.5;;;3.4;;
80868;SDS011;70295;40.182;44.498;2023-08-21T04:48:15;7.7;;;3.4;;
80868;SDS011;70295;40.182;44.498;2023-08-21T04:50:14;7.8;;;3.6;;
80868;SDS011;70295;40.182;44.498;2023-08-21T04:51:48;6.1;;;3.2;;
80868;SDS011;70295;40.182;44.498;2023-08-21T04:53:48;5.8;;;3.4;;
80868;SDS011;70295;40.182;44.498;2023-08-21T04:55:48;7.7;;;3.5;;
80868;SDS011;70295;40.182;44.498;2023-08-21T04:57:48;6;;;3.2;;
80868;SDS011;70295;40.182;44.498;2023-08-21T04:59:48;5.9;;;3.5;;
80868;SDS011;70295;40.182;44.498;2023-08-21T05:01:48;8.3;;;3.5;;
80868;SDS011;70295;40.182;44.498;2023-08-21T05:03:48;8.1;;;3.6;;
80868;SDS011;70295;40.182;44.498;2023-08-21T05:07:48;8.5;;;4.1;;
80868;SDS011;70295;40.182;44.498;2023-08-21T05:09:48;6;;;3.8;;
80868;SDS011;70295;40.182;44.498;2023-08-21T05:11:48;8;;;3.7;;
80868;SDS011;70295;40.182;44.498;2023-08-21T05:13:48;7.9;;;3.8;;
80868;SDS011;70295;40.182;44.498;2023-08-21T05:24:21;8.3;;;3.8;;
80868;SDS011;70295;40.182;44.498;2023-08-21T05:26:21;7.3;;;3.7;;
80868;SDS011;70295;40.182;44.498;2023-08-21T05:28:21;6.4;;;3.9;;
80868;SDS011;70295;40.182;44.498;2023-08-21T05:30:21;7.2;;;3.8;;
80868;SDS011;70295;40.182;44.498;2023-08-21T05:39:04;9;;;3.7;;
80868;SDS011;70295;40.182;44.498;2023-08-21T05:41:03;7.7;;;3.9;;
80868;SDS011;70295;40.182;44.498;2023-08-21T05:43:03;6.2;;;3.3;;
80868;SDS011;70295;40.182;44.498;2023-08-21T05:45:03;6.8;;;3.1;;
80868;SDS011;70295;40.182;44.498;2023-08-21T05:47:03;6.3;;;3.4;;
80868;SDS011;70295;40.182;44.498;2023-08-21T05:49:02;7.1;;;3.6;;
80868;SDS011;70295;40.182;44.498;2023-08-21T05:51:03;7.5;;;3.4;;
80868;SDS011;70295;40.182;44.498;2023-08-21T05:53:03;8;;;3.8;;
80868;SDS011;70295;40.182;44.498;2023-08-21T05:55:03;5.6;;;3.6;;
80868;SDS011;70295;40.182;44.498;2023-08-21T05:57:03;8.4;;;3.5;;
80868;SDS011;70295;40.182;44.498;2023-08-21T05:59:02;8.2;;;3.1;;
80868;SDS011;70295;40.182;44.498;2023-08-21T06:01:03;6.9;;;3.5;;
80868;SDS011;70295;40.182;44.498;2023-08-21T06:03:03;9.8;;;3.7;;
80868;SDS011;70295;40.182;44.498;2023-08-21T06:05:03;7;;;3.5;;
80868;SDS011;70295;40.182;44.498;2023-08-21T06:07:03;6.4;;;3.8;;
80868;SDS011;70295;40.182;44.498;2023-08-21T06:09:03;7.3;;;3.9;;
80868;SDS011;70295;40.182;44.498;2023-08-21T06:11:02;7.6;;;3.3;;
80868;SDS011;70295;40.182;44.498;2023-08-21T06:13:03;7.5;;;3.5;;
80868;SDS011;70295;40.182;44.498;2023-08-21T06:15:03;6.7;;;3.8;;
80868;SDS011;70295;40.182;44.498;2023-08-21T06:17:03;7.7;;;3.8;;
80868;SDS011;70295;40.182;44.498;2023-08-21T06:19:03;8;;;3.6;;
80868;SDS011;70295;40.182;44.498;2023-08-21T06:21:02;18.3;;;5.1;;
80868;SDS011;70295;40.182;44.498;2023-08-21T06:23:03;7.8;;;3.5;;
80868;SDS011;70295;40.182;44.498;2023-08-21T06:25:03;11.8;;;4.2;;
80868;SDS011;70295;40.182;44.498;2023-08-21T06:27:02;24;;;5.5;;
80868;SDS011;70295;40.182;44.498;2023-08-21T06:29:02;7.8;;;3.6;;
80868;SDS011;70295;40.182;44.498;2023-08-21T06:31:02;8.7;;;3.7;;
80868;SDS011;70295;40.182;44.498;2023-08-21T06:33:03;6.9;;;4.1;;
80868;SDS011;70295;40.182;44.498;2023-08-21T06:35:03;6.4;;;3.8;;
80868;SDS011;70295;40.182;44.498;2023-08-21T06:37:02;7.5;;;3.5;;
80868;SDS011;70295;40.182;44.498;2023-08-21T06:39:03;12.3;;;4.6;;
80868;SDS011;70295;40.182;44.498;2023-08-21T06:41:02;9.7;;;4;;
80868;SDS011;70295;40.182;44.498;2023-08-21T06:43:03;23.2;;;5.4;;
80868;SDS011;70295;40.182;44.498;2023-08-21T06:45:07;24.2;;;5.1;;
80868;SDS011;70295;40.182;44.498;2023-08-21T06:47:02;8.2;;;3.8;;
80868;SDS011;70295;40.182;44.498;2023-08-21T06:49:03;24.9;;;5.8;;
80868;SDS011;70295;40.182;44.498;2023-08-21T06:51:02;7.6;;;3.9;;
80868;SDS011;70295;40.182;44.498;2023-08-21T06:53:03;8.8;;;4.1;;
80868;SDS011;70295;40.182;44.498;2023-08-21T07:01:34;6.3;;;3.5;;
80868;SDS011;70295;40.182;44.498;2023-08-21T07:03:34;7.1;;;3.9;;
80868;SDS011;70295;40.182;44.498;2023-08-21T07:05:34;9.9;;;4.1;;
80868;SDS011;70295;40.182;44.498;2023-08-21T07:07:35;12.1;;;4.4;;
80868;SDS011;70295;40.182;44.498;2023-08-21T07:09:34;30.5;;;6.8;;
80868;SDS011;70295;40.182;44.498;2023-08-21T07:11:34;123.2;;;17.2;;
80868;SDS011;70295;40.182;44.498;2023-08-21T07:13:35;20.2;;;5;;
80868;SDS011;70295;40.182;44.498;2023-08-21T07:15:34;9;;;4.1;;
80868;SDS011;70295;40.182;44.498;2023-08-21T07:17:34;7.6;;;3.8;;
80868;SDS011;70295;40.182;44.498;2023-08-21T07:19:34;5.9;;;3.5;;
80868;SDS011;70295;40.182;44.498;2023-08-21T07:21:34;7.5;;;3.9;;
80868;SDS011;70295;40.182;44.498;2023-08-21T07:23:34;6.3;;;3.4;;
80868;SDS011;70295;40.182;44.498;2023-08-21T07:25:34;5.3;;;4.1;;
80868;SDS011;70295;40.182;44.498;2023-08-21T07:27:35;6.8;;;3.8;;
80868;SDS011;70295;40.182;44.498;2023-08-21T07:36:12;8.3;;;4.3;;
80868;SDS011;70295;40.182;44.498;2023-08-21T07:38:12;8.8;;;3.7;;
80868;SDS011;70295;40.182;44.498;2023-08-21T07:40:12;7.9;;;3.5;;
80868;SDS011;70295;40.182;44.498;2023-08-21T07:42:13;8.1;;;3.8;;
80868;SDS011;70295;40.182;44.498;2023-08-21T07:44:12;10.8;;;3.6;;
80868;SDS011;70295;40.182;44.498;2023-08-21T07:46:14;6.6;;;3.4;;
80868;SDS011;70295;40.182;44.498;2023-08-21T07:48:12;5.4;;;3.4;;
80868;SDS011;70295;40.182;44.498;2023-08-21T07:50:12;10.2;;;4.2;;
80868;SDS011;70295;40.182;44.498;2023-08-21T07:52:12;8.3;;;3.9;;
80868;SDS011;70295;40.182;44.498;2023-08-21T07:54:12;6.8;;;3.8;;
80868;SDS011;70295;40.182;44.498;2023-08-21T07:56:12;7.1;;;3.9;;
80868;SDS011;70295;40.182;44.498;2023-08-21T07:58:13;6.5;;;3.7;;
80868;SDS011;70295;40.182;44.498;2023-08-21T08:00:13;7.5;;;3.8;;
80868;SDS011;70295;40.182;44.498;2023-08-21T08:02:12;13.6;;;4.3;;
80868;SDS011;70295;40.182;44.498;2023-08-21T08:04:12;8;;;4;;
80868;SDS011;70295;40.182;44.498;2023-08-21T08:06:12;7.6;;;4;;
80868;SDS011;70295;40.182;44.498;2023-08-21T08:08:12;5.1;;;3.4;;
80868;SDS011;70295;40.182;44.498;2023-08-21T08:10:12;6.5;;;3.6;;
80868;SDS011;70295;40.182;44.498;2023-08-21T08:12:12;6;;;4;;
80868;SDS011;70295;40.182;44.498;2023-08-21T08:14:12;7.4;;;3.7;;
80868;SDS011;70295;40.182;44.498;2023-08-21T08:16:12;7.1;;;4;;
80868;SDS011;70295;40.182;44.498;2023-08-21T08:18:13;8.7;;;4.1;;
80868;SDS011;70295;40.182;44.498;2023-08-21T08:20:13;10.5;;;4.3;;
80868;SDS011;70295;40.182;44.498;2023-08-21T08:22:12;9.3;;;5.4;;
80868;SDS011;70295;40.182;44.498;2023-08-21T08:24:12;6.9;;;4.2;;
80868;SDS011;70295;40.182;44.498;2023-08-21T08:26:12;9.3;;;4.4;;
80868;SDS011;70295;40.182;44.498;2023-08-21T08:28:12;7;;;3.5;;
80868;SDS011;70295;40.182;44.498;2023-08-21T08:30:13;7.5;;;3.9;;
80868;SDS011;70295;40.182;44.498;2023-08-21T08:32:12;7.2;;;4.4;;
80868;SDS011;70295;40.182;44.498;2023-08-21T08:34:12;6.5;;;3.9;;
80868;SDS011;70295;40.182;44.498;2023-08-21T08:36:12;5.2;;;3.7;;
80868;SDS011;70295;40.182;44.498;2023-08-21T08:38:13;7.4;;;4.1;;
80868;SDS011;70295;40.182;44.498;2023-08-21T08:40:13;9.9;;;4.2;;
80868;SDS011;70295;40.182;44.498;2023-08-21T08:42:13;9.5;;;4.1;;
80868;SDS011;70295;40.182;44.498;2023-08-21T08:44:14;12.4;;;4.7;;
80868;SDS011;70295;40.182;44.498;2023-08-21T08:46:13;11.3;;;5;;
80868;SDS011;70295;40.182;44.498;2023-08-21T08:48:12;9.6;;;5.9;;
80868;SDS011;70295;40.182;44.498;2023-08-21T08:50:13;6.4;;;4.3;;
80868;SDS011;70295;40.182;44.498;2023-08-21T08:52:13;9.5;;;4.5;;
80868;SDS011;70295;40.182;44.498;2023-08-21T08:54:13;7.7;;;4.1;;
80868;SDS011;70295;40.182;44.498;2023-08-21T08:56:12;9.7;;;4.9;;
80868;SDS011;70295;40.182;44.498;2023-08-21T09:03:42;9.5;;;5.1;;
80868;SDS011;70295;40.182;44.498;2023-08-21T09:05:42;9.2;;;4.2;;
80868;SDS011;70295;40.182;44.498;2023-08-21T09:07:42;9.9;;;4.2;;
80868;SDS011;70295;40.182;44.498;2023-08-21T09:11:43;7.9;;;4.9;;
80868;SDS011;70295;40.182;44.498;2023-08-21T09:13:42;8.1;;;4.5;;
80868;SDS011;70295;40.182;44.498;2023-08-21T09:22:24;10.3;;;4.9;;
80868;SDS011;70295;40.182;44.498;2023-08-21T09:24:24;11.5;;;5.6;;
80868;SDS011;70295;40.182;44.498;2023-08-21T09:26:25;11.1;;;4.9;;
80868;SDS011;70295;40.182;44.498;2023-08-21T09:28:25;18.5;;;6.2;;
80868;SDS011;70295;40.182;44.498;2023-08-21T09:30:24;10.3;;;5.2;;
80868;SDS011;70295;40.182;44.498;2023-08-21T09:32:24;9.4;;;4.5;;
80868;SDS011;70295;40.182;44.498;2023-08-21T09:34:24;11;;;5.3;;
80868;SDS011;70295;40.182;44.498;2023-08-21T09:36:24;9.8;;;5.3;;
80868;SDS011;70295;40.182;44.498;2023-08-21T09:38:25;13.4;;;5.7;;
80868;SDS011;70295;40.182;44.498;2023-08-21T09:47:44;8.1;;;5.3;;
80868;SDS011;70295;40.182;44.498;2023-08-21T09:49:44;9.6;;;5.4;;
80868;SDS011;70295;40.182;44.498;2023-08-21T09:51:44;8.2;;;5.1;;
80868;SDS011;70295;40.182;44.498;2023-08-21T09:53:44;7.2;;;4.8;;
80868;SDS011;70295;40.182;44.498;2023-08-21T09:55:44;13.3;;;5.9;;
80868;SDS011;70295;40.182;44.498;2023-08-21T09:57:44;13.6;;;5.6;;
80868;SDS011;70295;40.182;44.498;2023-08-21T09:59:44;11.1;;;5.5;;
80868;SDS011;70295;40.182;44.498;2023-08-21T10:01:44;17.4;;;7.3;;
80868;SDS011;70295;40.182;44.498;2023-08-21T10:03:45;13.8;;;5.7;;
80868;SDS011;70295;40.182;44.498;2023-08-21T10:05:44;15.5;;;6.4;;
80868;SDS011;70295;40.182;44.498;2023-08-21T10:07:44;11.9;;;5.7;;
80868;SDS011;70295;40.182;44.498;2023-08-21T10:09:44;9.9;;;5.4;;
80868;SDS011;70295;40.182;44.498;2023-08-21T10:11:45;9.2;;;5.9;;
80868;SDS011;70295;40.182;44.498;2023-08-21T10:13:44;9.6;;;5.4;;
80868;SDS011;70295;40.182;44.498;2023-08-21T10:15:44;9.7;;;5.2;;
80868;SDS011;70295;40.182;44.498;2023-08-21T10:17:45;9.4;;;5.4;;
80868;SDS011;70295;40.182;44.498;2023-08-21T10:19:50;10.4;;;5.8;;
80868;SDS011;70295;40.182;44.498;2023-08-21T10:21:45;12.5;;;5.5;;
80868;SDS011;70295;40.182;44.498;2023-08-21T10:25:44;10.1;;;5.7;;
80868;SDS011;70295;40.182;44.498;2023-08-21T10:27:44;12.6;;;6.1;;
80868;SDS011;70295;40.182;44.498;2023-08-21T10:29:56;10;;;5.8;;
80868;SDS011;70295;40.182;44.498;2023-08-21T10:31:44;7.2;;;5.5;;
80868;SDS011;70295;40.182;44.498;2023-08-21T10:33:45;13.4;;;5.8;;
80868;SDS011;70295;40.182;44.498;2023-08-21T10:35:44;12;;;5.6;;
80868;SDS011;70295;40.182;44.498;2023-08-21T10:39:55;6.9;;;5.4;;
80868;SDS011;70295;40.182;44.498;2023-08-21T10:50:58;8.6;;;5.7;;
80868;SDS011;70295;40.182;44.498;2023-08-21T10:56:42;10.7;;;7;;
80868;SDS011;70295;40.182;44.498;2023-08-21T10:58:22;9.8;;;6.1;;
80868;SDS011;70295;40.182;44.498;2023-08-21T11:00:22;9;;;6.1;;
80868;SDS011;70295;40.182;44.498;2023-08-21T11:02:22;8.9;;;6.4;;
80868;SDS011;70295;40.182;44.498;2023-08-21T11:04:22;9.8;;;6.4;;
80868;SDS011;70295;40.182;44.498;2023-08-21T11:06:22;8.3;;;5.7;;
80868;SDS011;70295;40.182;44.498;2023-08-21T11:08:22;9.5;;;6.1;;
80868;SDS011;70295;40.182;44.498;2023-08-21T11:10:23;12.2;;;6.3;;
80868;SDS011;70295;40.182;44.498;2023-08-21T11:12:23;9.7;;;5.9;;
80868;SDS011;70295;40.182;44.498;2023-08-21T11:16:22;9;;;6.7;;
80868;SDS011;70295;40.182;44.498;2023-08-21T11:18:22;9.4;;;6.6;;
80868;SDS011;70295;40.182;44.498;2023-08-21T11:20:22;9.5;;;6.3;;
80868;SDS011;70295;40.182;44.498;2023-08-21T11:22:27;10.4;;;6.8;;
80868;SDS011;70295;40.182;44.498;2023-08-21T11:24:22;9.8;;;6.7;;
80868;SDS011;70295;40.182;44.498;2023-08-21T11:26:24;9.7;;;6.8;;
80868;SDS011;70295;40.182;44.498;2023-08-21T11:28:22;12;;;6.2;;
80868;SDS011;70295;40.182;44.498;2023-08-21T11:30:23;7.9;;;6.1;;
80868;SDS011;70295;40.182;44.498;2023-08-21T11:32:23;9.5;;;5.9;;
80868;SDS011;70295;40.182;44.498;2023-08-21T11:34:22;12.3;;;6.1;;
80868;SDS011;70295;40.182;44.498;2023-08-21T11:36:22;9.9;;;6.1;;
80868;SDS011;70295;40.182;44.498;2023-08-21T11:38:24;10.5;;;6;;
80868;SDS011;70295;40.182;44.498;2023-08-21T11:40:22;8.6;;;6.1;;
80868;SDS011;70295;40.182;44.498;2023-08-21T11:42:32;11.1;;;6.7;;
80868;SDS011;70295;40.182;44.498;2023-08-21T11:44:22;11.9;;;6.5;;
80868;SDS011;70295;40.182;44.498;2023-08-21T11:46:22;8;;;6;;
80868;SDS011;70295;40.182;44.498;2023-08-21T11:48:22;10.1;;;5.8;;
80868;SDS011;70295;40.182;44.498;2023-08-21T11:50:22;10.9;;;6;;
80868;SDS011;70295;40.182;44.498;2023-08-21T11:52:23;10.5;;;6.4;;
80868;SDS011;70295;40.182;44.498;2023-08-21T11:54:22;9.5;;;6.3;;
80868;SDS011;70295;40.182;44.498;2023-08-21T11:56:21;9.3;;;6;;
80868;SDS011;70295;40.182;44.498;2023-08-21T11:58:22;8.1;;;5.8;;
80868;SDS011;70295;40.182;44.498;2023-08-21T12:04:22;9.5;;;5.8;;
80868;SDS011;70295;40.182;44.498;2023-08-21T12:06:22;10.4;;;6;;
80868;SDS011;70295;40.182;44.498;2023-08-21T12:08:22;11;;;6.6;;
80868;SDS011;70295;40.182;44.498;2023-08-21T12:10:23;10.1;;;6.7;;
80868;SDS011;70295;40.182;44.498;2023-08-21T12:12:22;10.7;;;6.6;;
80868;SDS011;70295;40.182;44.498;2023-08-21T12:14:22;9.7;;;6.3;;
80868;SDS011;70295;40.182;44.498;2023-08-21T12:16:22;9.9;;;6;;
80868;SDS011;70295;40.182;44.498;2023-08-21T12:18:22;10.7;;;6.4;;
80868;SDS011;70295;40.182;44.498;2023-08-21T12:20:22;8.9;;;6;;
80868;SDS011;70295;40.182;44.498;2023-08-21T12:22:22;10.1;;;5.9;;
80868;SDS011;70295;40.182;44.498;2023-08-21T12:24:22;11.2;;;6.4;;
80868;SDS011;70295;40.182;44.498;2023-08-21T12:26:22;7.5;;;5.4;;
80868;SDS011;70295;40.182;44.498;2023-08-21T12:28:22;8.6;;;5.3;;
80868;SDS011;70295;40.182;44.498;2023-08-21T12:30:22;9.9;;;6.2;;
80868;SDS011;70295;40.182;44.498;2023-08-21T12:32:22;12.4;;;6.7;;
80868;SDS011;70295;40.182;44.498;2023-08-21T12:34:22;10.1;;;5.7;;
80868;SDS011;70295;40.182;44.498;2023-08-21T12:36:22;8.7;;;6.1;;
80868;SDS011;70295;40.182;44.498;2023-08-21T12:43:45;11.6;;;6.4;;
80868;SDS011;70295;40.182;44.498;2023-08-21T12:45:44;9.8;;;5.9;;
80868;SDS011;70295;40.182;44.498;2023-08-21T12:47:45;12.7;;;7;;
80868;SDS011;70295;40.182;44.498;2023-08-21T12:49:45;10;;;6;;
80868;SDS011;70295;40.182;44.498;2023-08-21T12:55:12;12.3;;;6.5;;
80868;SDS011;70295;40.182;44.498;2023-08-21T12:57:12;10.8;;;6.5;;
80868;SDS011;70295;40.182;44.498;2023-08-21T12:59:12;10.9;;;6.5;;
80868;SDS011;70295;40.182;44.498;2023-08-21T13:01:12;13.9;;;6.8;;
80868;SDS011;70295;40.182;44.498;2023-08-21T13:03:12;11.2;;;6.6;;
80868;SDS011;70295;40.182;44.498;2023-08-21T13:05:12;13.7;;;6.6;;
80868;SDS011;70295;40.182;44.498;2023-08-21T13:07:13;12;;;6.7;;
80868;SDS011;70295;40.182;44.498;2023-08-21T13:09:12;12.6;;;6.5;;
80868;SDS011;70295;40.182;44.498;2023-08-21T13:11:12;9.4;;;5.8;;
80868;SDS011;70295;40.182;44.498;2023-08-21T13:13:12;11.2;;;6.2;;
80868;SDS011;70295;40.182;44.498;2023-08-21T13:15:12;8.9;;;6;;
80868;SDS011;70295;40.182;44.498;2023-08-21T13:17:12;14.6;;;6;;
80868;SDS011;70295;40.182;44.498;2023-08-21T13:19:12;11.5;;;6.5;;
80868;SDS011;70295;40.182;44.498;2023-08-21T13:21:12;15.4;;;7.2;;
80868;SDS011;70295;40.182;44.498;2023-08-21T13:23:12;10.9;;;6.7;;
80868;SDS011;70295;40.182;44.498;2023-08-21T13:25:12;9.7;;;6.5;;
80868;SDS011;70295;40.182;44.498;2023-08-21T13:27:12;11.5;;;7.1;;
80868;SDS011;70295;40.182;44.498;2023-08-21T13:29:12;9.7;;;6.4;;
80868;SDS011;70295;40.182;44.498;2023-08-21T13:31:12;10.1;;;5.9;;
80868;SDS011;70295;40.182;44.498;2023-08-21T13:33:14;13.6;;;6.2;;
80868;SDS011;70295;40.182;44.498;2023-08-21T13:35:12;15.4;;;6.5;;
80868;SDS011;70295;40.182;44.498;2023-08-21T13:37:12;13.7;;;6.5;;
80868;SDS011;70295;40.182;44.498;2023-08-21T13:39:12;9.7;;;6.3;;
80868;SDS011;70295;40.182;44.498;2023-08-21T13:41:12;12.3;;;6.9;;
80868;SDS011;70295;40.182;44.498;2023-08-21T13:44:24;12.3;;;6.4;;
80868;SDS011;70295;40.182;44.498;2023-08-21T13:46:24;12.3;;;6.5;;
80868;SDS011;70295;40.182;44.498;2023-08-21T13:48:25;10.8;;;6.3;;
80868;SDS011;70295;40.182;44.498;2023-08-21T13:50:25;10;;;6.4;;
80868;SDS011;70295;40.182;44.498;2023-08-21T13:58:02;10.7;;;6.8;;
80868;SDS011;70295;40.182;44.498;2023-08-21T14:00:02;10.6;;;6.8;;
80868;SDS011;70295;40.182;44.498;2023-08-21T14:02:02;9.2;;;6.4;;
80868;SDS011;70295;40.182;44.498;2023-08-21T14:04:02;9.6;;;6.9;;
80868;SDS011;70295;40.182;44.498;2023-08-21T14:06:01;14.5;;;6.9;;
80868;SDS011;70295;40.182;44.498;2023-08-21T14:08:02;12;;;7;;
80868;SDS011;70295;40.182;44.498;2023-08-21T14:10:02;13.2;;;6.6;;
80868;SDS011;70295;40.182;44.498;2023-08-21T14:12:02;15.6;;;6.9;;
80868;SDS011;70295;40.182;44.498;2023-08-21T14:14:02;10;;;6.9;;
80868;SDS011;70295;40.182;44.498;2023-08-21T14:16:01;11.2;;;7.1;;
80868;SDS011;70295;40.182;44.498;2023-08-21T14:18:50;14;;;7.2;;
80868;SDS011;70295;40.182;44.498;2023-08-21T14:20:50;15.2;;;7.3;;
80868;SDS011;70295;40.182;44.498;2023-08-21T14:22:50;16.5;;;7.8;;
80868;SDS011;70295;40.182;44.498;2023-08-21T14:24:50;10.4;;;6.8;;
80868;SDS011;70295;40.182;44.498;2023-08-21T14:26:51;12.8;;;6.9;;
80868;SDS011;70295;40.182;44.498;2023-08-21T14:28:51;13.1;;;7.2;;
80868;SDS011;70295;40.182;44.498;2023-08-21T14:30:51;14;;;7;;
80868;SDS011;70295;40.182;44.498;2023-08-21T14:32:50;10.6;;;7.4;;
80868;SDS011;70295;40.182;44.498;2023-08-21T14:34:50;11.5;;;6.9;;
80868;SDS011;70295;40.182;44.498;2023-08-21T14:36:51;14.8;;;7.3;;
80868;SDS011;70295;40.182;44.498;2023-08-21T14:38:50;10.6;;;7.1;;
80868;SDS011;70295;40.182;44.498;2023-08-21T14:40:50;9.2;;;6.9;;
80868;SDS011;70295;40.182;44.498;2023-08-21T14:42:50;16.5;;;7.3;;
80868;SDS011;70295;40.182;44.498;2023-08-21T14:44:50;10.8;;;6.9;;
80868;SDS011;70295;40.182;44.498;2023-08-21T14:48:51;11.2;;;6.8;;
80868;SDS011;70295;40.182;44.498;2023-08-21T14:50:50;13.2;;;8;;
80868;SDS011;70295;40.182;44.498;2023-08-21T14:52:51;16.3;;;7.7;;
80868;SDS011;70295;40.182;44.498;2023-08-21T14:54:52;18.7;;;7.6;;
80868;SDS011;70295;40.182;44.498;2023-08-21T14:56:51;18.4;;;8.5;;
80868;SDS011;70295;40.182;44.498;2023-08-21T14:58:50;21.9;;;8.5;;
80868;SDS011;70295;40.182;44.498;2023-08-21T15:00:53;21;;;8.6;;
80868;SDS011;70295;40.182;44.498;2023-08-21T15:09:15;11.8;;;7.9;;
80868;SDS011;70295;40.182;44.498;2023-08-21T15:11:15;13.6;;;8.5;;